Time;durP1;ratioP1;P1;durP2;ratioP2;P2;SDS_P1;SDS_P2;PMS_P1;PMS_P2;Temp;Humidity;BMP_temperature;BMP_pressure;BME280_temperature;BME280_humidity;BME280_pressure;Samples;Min_cycle;Max_cycle;Signal;HPM_P1;HPM_P2
2022/10/07 00:01:45;;;;;;;11.00;3.35;;;;;;;;;;4971591;28;20089;-76
2022/10/07 00:04:11;;;;;;;12.23;3.13;;;;;;;;;;4962334;28;20104;-76
2022/10/07 00:06:37;;;;;;;10.98;3.33;;;;;;;;;;4967020;28;20043;-76
2022/10/07 00:09:03;;;;;;;10.95;3.17;;;;;;;;;;4952846;28;20050;-76
2022/10/07 00:11:29;;;;;;;16.42;3.33;;;;;;;;;;4955825;28;20578;-76
2022/10/07 00:13:57;;;;;;;12.13;3.28;;;;;;;;;;4954390;28;20043;-76
2022/10/07 00:16:25;;;;;;;16.83;4.22;;;;;;;;;;4982239;28;20445;-76
2022/10/07 00:18:51;;;;;;;9.35;3.08;;;;;;;;;;4944277;28;20059;-76
2022/10/07 00:21:18;;;;;;;15.63;4.65;;;;;;;;;;4951858;28;20090;-76
2022/10/07 00:23:45;;;;;;;10.85;3.83;;;;;;;;;;4952445;29;20059;-76
2022/10/07 00:26:12;;;;;;;13.98;3.42;;;;;;;;;;4952136;29;20487;-76
2022/10/07 00:28:39;;;;;;;10.52;3.40;;;;;;;;;;4952888;28;20051;-76
2022/10/07 00:31:07;;;;;;;11.43;2.97;;;;;;;;;;4952827;28;20054;-76
2022/10/07 00:33:34;;;;;;;10.95;3.80;;;;;;;;;;4957150;28;20500;-76
2022/10/07 00:36:01;;;;;;;14.27;3.45;;;;;;;;;;4963739;28;20050;-76
2022/10/07 00:38:27;;;;;;;10.82;3.42;;;;;;;;;;4952494;28;20501;-76
2022/10/07 00:40:53;;;;;;;15.15;3.22;;;;;;;;;;4952285;28;20478;-76
2022/10/07 00:43:25;;;;;;;16.08;3.47;;;;;;;;;;4952263;28;20051;-76
2022/10/07 00:45:51;;;;;;;12.20;3.50;;;;;;;;;;4952192;28;20170;-76
2022/10/07 00:48:23;;;;;;;8.93;3.03;;;;;;;;;;4960047;28;20039;-76
2022/10/07 00:50:51;;;;;;;7.15;3.17;;;;;;;;;;4971570;28;20522;-76
2022/10/07 00:53:17;;;;;;;13.40;3.47;;;;;;;;;;4971243;28;20054;-76
2022/10/07 00:55:44;;;;;;;15.32;4.40;;;;;;;;;;4972041;28;20145;-76
2022/10/07 00:58:10;;;;;;;14.23;3.25;;;;;;;;;;4961479;28;20097;-76
2022/10/07 01:00:38;;;;;;;13.75;3.60;;;;;;;;;;4952432;28;20055;-76
2022/10/07 01:03:04;;;;;;;13.18;3.63;;;;;;;;;;4959747;28;20126;-76
2022/10/07 01:05:30;;;;;;;9.20;3.20;;;;;;;;;;4971116;28;20371;-76
2022/10/07 01:07:57;;;;;;;11.48;3.55;;;;;;;;;;4970941;28;20047;-76
2022/10/07 01:10:25;;;;;;;10.07;3.17;;;;;;;;;;4971366;28;20047;-76
2022/10/07 01:13:04;;;;;;;13.10;4.32;;;;;;;;;;4969582;28;20489;-76
2022/10/07 01:15:36;;;;;;;11.90;3.00;;;;;;;;;;4970768;28;20050;-76
2022/10/07 01:18:13;;;;;;;11.85;3.78;;;;;;;;;;4968113;28;20478;-76
2022/10/07 01:20:51;;;;;;;14.82;3.50;;;;;;;;;;4958365;28;20089;-76
2022/10/07 01:23:17;;;;;;;9.40;3.55;;;;;;;;;;4951578;28;20394;-76
2022/10/07 01:25:43;;;;;;;14.10;3.45;;;;;;;;;;4964436;28;20474;-76
2022/10/07 01:28:13;;;;;;;15.60;3.55;;;;;;;;;;4960961;28;20081;-75
2022/10/07 01:30:41;;;;;;;8.75;3.78;;;;;;;;;;4974494;28;20055;-76
2022/10/07 01:33:12;;;;;;;18.20;4.25;;;;;;;;;;4974233;28;20497;-76
2022/10/07 01:35:39;;;;;;;9.35;2.90;;;;;;;;;;4974392;28;20047;-76
2022/10/07 01:38:08;;;;;;;10.02;3.60;;;;;;;;;;4974281;28;20058;-76
2022/10/07 01:40:37;;;;;;;15.40;3.90;;;;;;;;;;4974246;28;20046;-76
2022/10/07 01:43:03;;;;;;;8.07;3.13;;;;;;;;;;4969192;28;20035;-76
2022/10/07 01:45:31;;;;;;;13.68;3.60;;;;;;;;;;4974422;28;20089;-76
2022/10/07 01:47:58;;;;;;;13.00;3.55;;;;;;;;;;4965462;28;20559;-76
2022/10/07 01:50:26;;;;;;;10.43;2.92;;;;;;;;;;4954301;28;20095;-76
2022/10/07 01:52:52;;;;;;;8.70;2.92;;;;;;;;;;4955335;28;20043;-76
2022/10/07 01:55:39;;;;;;;10.63;3.20;;;;;;;;;;4955507;28;20044;-76
2022/10/07 01:58:25;;;;;;;12.82;3.55;;;;;;;;;;4973651;28;20530;-76
2022/10/07 02:00:56;;;;;;;9.65;3.20;;;;;;;;;;4937081;29;20047;-76
2022/10/07 02:03:44;;;;;;;12.48;4.25;;;;;;;;;;4968036;28;20043;-76
2022/10/07 02:06:14;;;;;;;10.70;3.40;;;;;;;;;;4989052;28;20478;-76
2022/10/07 02:08:46;;;;;;;16.55;3.80;;;;;;;;;;4973796;28;20047;-75
2022/10/07 02:11:17;;;;;;;13.93;4.00;;;;;;;;;;4973173;28;20043;-76
2022/10/07 02:14:01;;;;;;;12.45;3.25;;;;;;;;;;4974105;28;20043;-76
2022/10/07 02:16:31;;;;;;;10.80;3.67;;;;;;;;;;4972496;28;20431;-76
2022/10/07 02:19:00;;;;;;;11.45;3.95;;;;;;;;;;4954086;28;20502;-76
2022/10/07 02:21:29;;;;;;;14.95;3.85;;;;;;;;;;4954876;28;20051;-76
2022/10/07 02:23:56;;;;;;;10.45;3.70;;;;;;;;;;4955575;28;20047;-76
2022/10/07 02:26:24;;;;;;;13.68;4.13;;;;;;;;;;4954149;28;20551;-76
2022/10/07 02:28:51;;;;;;;13.82;3.20;;;;;;;;;;4971722;28;20386;-76
2022/10/07 02:31:20;;;;;;;16.52;3.65;;;;;;;;;;4972872;28;20039;-76
2022/10/07 02:33:46;;;;;;;14.95;3.72;;;;;;;;;;4965673;28;20114;-76
2022/10/07 02:36:20;;;;;;;11.50;3.85;;;;;;;;;;4954171;28;20472;-76
2022/10/07 02:38:46;;;;;;;14.40;3.90;;;;;;;;;;4954225;28;20047;-76
2022/10/07 02:41:30;;;;;;;13.07;4.25;;;;;;;;;;4953428;28;20066;-76
2022/10/07 02:44:05;;;;;;;13.48;4.47;;;;;;;;;;4958990;29;20047;-75
2022/10/07 02:46:34;;;;;;;16.15;4.07;;;;;;;;;;4967203;28;20066;-76
2022/10/07 02:49:02;;;;;;;13.30;4.20;;;;;;;;;;4961914;28;20062;-76
2022/10/07 02:51:32;;;;;;;12.45;4.50;;;;;;;;;;4960908;28;20133;-76
2022/10/07 02:54:01;;;;;;;14.35;4.90;;;;;;;;;;4960335;28;20050;-76
2022/10/07 02:56:29;;;;;;;14.88;4.70;;;;;;;;;;4973848;28;20050;-76
2022/10/07 02:58:56;;;;;;;12.25;4.03;;;;;;;;;;4973299;28;20141;-76
2022/10/07 03:01:25;;;;;;;14.25;4.47;;;;;;;;;;4962174;28;20104;-75
2022/10/07 03:03:51;;;;;;;12.77;5.32;;;;;;;;;;4959553;28;20398;-76
2022/10/07 03:06:18;;;;;;;16.55;5.07;;;;;;;;;;4973373;28;20039;-76
2022/10/07 03:08:46;;;;;;;14.45;4.88;;;;;;;;;;4972962;28;20051;-76
2022/10/07 03:11:12;;;;;;;12.43;4.63;;;;;;;;;;4972865;28;20055;-76
2022/10/07 03:13:38;;;;;;;12.32;5.03;;;;;;;;;;4971882;28;20106;-76
2022/10/07 03:16:04;;;;;;;16.05;4.85;;;;;;;;;;4970642;28;20112;-76
2022/10/07 03:18:31;;;;;;;11.43;4.50;;;;;;;;;;4952600;28;20055;-76
2022/10/07 03:20:59;;;;;;;12.98;4.53;;;;;;;;;;4953496;28;20054;-76
2022/10/07 03:23:26;;;;;;;15.15;5.38;;;;;;;;;;4953369;28;20047;-76
2022/10/07 03:25:53;;;;;;;14.93;5.00;;;;;;;;;;4953441;28;20047;-76
2022/10/07 03:28:20;;;;;;;11.60;4.40;;;;;;;;;;4953861;29;20122;-76
2022/10/07 03:30:50;;;;;;;17.90;5.15;;;;;;;;;;4953656;28;20047;-76
2022/10/07 03:33:17;;;;;;;14.30;5.20;;;;;;;;;;4955362;28;20520;-76
2022/10/07 03:35:43;;;;;;;14.95;5.05;;;;;;;;;;4972635;28;20161;-76
2022/10/07 03:38:09;;;;;;;14.15;4.50;;;;;;;;;;4972829;28;20043;-76
2022/10/07 03:40:36;;;;;;;16.52;5.03;;;;;;;;;;4972423;28;20039;-76
2022/10/07 03:43:03;;;;;;;17.15;4.93;;;;;;;;;;4972597;28;20088;-76
2022/10/07 03:45:29;;;;;;;16.02;5.38;;;;;;;;;;4968070;28;20079;-76
2022/10/07 03:47:59;;;;;;;16.55;5.30;;;;;;;;;;4959757;28;20479;-76
2022/10/07 03:50:25;;;;;;;15.38;5.53;;;;;;;;;;4952385;29;20047;-76
2022/10/07 03:52:52;;;;;;;12.45;4.45;;;;;;;;;;4953072;28;20121;-76
2022/10/07 03:55:18;;;;;;;18.88;4.88;;;;;;;;;;4953656;28;20049;-76
2022/10/07 03:57:51;;;;;;;16.75;5.38;;;;;;;;;;4953557;28;20101;-76
2022/10/07 04:00:19;;;;;;;16.67;4.80;;;;;;;;;;4953210;28;20364;-76
2022/10/07 04:02:46;;;;;;;16.17;5.60;;;;;;;;;;4952847;28;20055;-76
2022/10/07 04:05:14;;;;;;;17.55;4.85;;;;;;;;;;4953345;28;20051;-76
2022/10/07 04:07:42;;;;;;;11.75;4.78;;;;;;;;;;4952728;28;20043;-76
2022/10/07 04:10:08;;;;;;;19.67;5.90;;;;;;;;;;4964382;28;20055;-76
2022/10/07 04:12:34;;;;;;;15.48;6.07;;;;;;;;;;4971293;28;20051;-76
2022/10/07 04:15:00;;;;;;;13.75;4.93;;;;;;;;;;4972331;28;20043;-76
2022/10/07 04:17:27;;;;;;;15.90;6.00;;;;;;;;;;4957532;28;20079;-76
2022/10/07 04:19:53;;;;;;;18.98;5.63;;;;;;;;;;4963847;28;20134;-76
2022/10/07 04:22:19;;;;;;;13.07;5.13;;;;;;;;;;4952351;28;20117;-76
2022/10/07 04:25:32;;;;;;;15.82;5.47;;;;;;;;;;4970521;28;20111;-76
2022/10/07 04:27:32;;;;;;;15.25;5.82;;;;;;;;;;4969892;28;20046;-76
2022/10/07 04:29:58;;;;;;;14.75;5.28;;;;;;;;;;4971751;28;20383;-76
2022/10/07 04:32:24;;;;;;;19.05;5.75;;;;;;;;;;4961047;28;20414;-76
2022/10/07 04:34:50;;;;;;;16.85;5.45;;;;;;;;;;4953011;28;20463;-76
2022/10/07 04:37:16;;;;;;;17.23;6.10;;;;;;;;;;4952872;28;20071;-76
2022/10/07 04:39:42;;;;;;;14.63;5.50;;;;;;;;;;4952794;28;20043;-76
2022/10/07 04:43:17;;;;;;;16.35;5.57;;;;;;;;;;4952441;28;20044;-76
2022/10/07 04:44:54;;;;;;;18.83;6.18;;;;;;;;;;4960014;28;20117;-76
2022/10/07 04:47:20;;;;;;;16.85;5.47;;;;;;;;;;4969578;28;20043;-76
2022/10/07 04:49:47;;;;;;;23.58;6.20;;;;;;;;;;4971296;28;20054;-76
2022/10/07 04:52:13;;;;;;;19.98;6.55;;;;;;;;;;4969595;28;20387;-77
2022/10/07 04:54:40;;;;;;;16.98;6.82;;;;;;;;;;4952136;29;20047;-76
2022/10/07 04:57:08;;;;;;;14.25;5.70;;;;;;;;;;4952368;28;20059;-76
2022/10/07 04:59:35;;;;;;;16.73;5.68;;;;;;;;;;4954224;28;20122;-76
2022/10/07 05:02:02;;;;;;;14.02;5.78;;;;;;;;;;4952981;28;20055;-76
2022/10/07 05:04:28;;;;;;;18.65;5.72;;;;;;;;;;4969471;28;20106;-81
2022/10/07 05:06:54;;;;;;;20.65;6.35;;;;;;;;;;4979974;28;20050;-76
2022/10/07 05:09:20;;;;;;;17.90;5.60;;;;;;;;;;4970570;28;20059;-78
2022/10/07 05:11:47;;;;;;;19.65;6.28;;;;;;;;;;4969844;28;20043;-76
2022/10/07 05:14:14;;;;;;;17.85;6.57;;;;;;;;;;4975175;28;20051;-76
2022/10/07 05:16:41;;;;;;;15.68;6.00;;;;;;;;;;4975068;28;20054;-76
2022/10/07 05:19:09;;;;;;;17.50;6.20;;;;;;;;;;4974589;28;20596;-76
2022/10/07 05:21:35;;;;;;;19.95;5.88;;;;;;;;;;4974849;28;20050;-76
2022/10/07 05:24:01;;;;;;;23.25;6.95;;;;;;;;;;4974631;28;20046;-76
2022/10/07 05:26:27;;;;;;;19.08;5.63;;;;;;;;;;4974271;28;20128;-76
2022/10/07 05:28:53;;;;;;;22.02;6.28;;;;;;;;;;4974503;28;20429;-76
2022/10/07 05:31:19;;;;;;;18.58;6.05;;;;;;;;;;4974303;28;20046;-76
2022/10/07 05:33:48;;;;;;;21.08;6.63;;;;;;;;;;4973879;28;20116;-76
2022/10/07 05:36:14;;;;;;;23.63;7.00;;;;;;;;;;4973852;28;20126;-76
2022/10/07 05:38:40;;;;;;;16.67;5.63;;;;;;;;;;4954462;28;20059;-76
2022/10/07 05:41:07;;;;;;;16.55;6.45;;;;;;;;;;4955366;28;20525;-76
2022/10/07 05:43:35;;;;;;;13.95;6.32;;;;;;;;;;4966973;28;20126;-76
2022/10/07 05:46:01;;;;;;;20.20;6.75;;;;;;;;;;4968108;28;20070;-80
2022/10/07 05:48:28;;;;;;;22.55;7.32;;;;;;;;;;4954757;28;20126;-75
2022/10/07 05:50:54;;;;;;;20.08;5.95;;;;;;;;;;4959332;28;20053;-75
2022/10/07 05:53:20;;;;;;;17.65;6.05;;;;;;;;;;4957276;28;20455;-75
2022/10/07 05:55:47;;;;;;;21.60;7.15;;;;;;;;;;4956532;29;20410;-77
2022/10/07 05:58:13;;;;;;;13.63;6.30;;;;;;;;;;4958555;29;20043;-75
2022/10/07 06:00:41;;;;;;;13.98;6.05;;;;;;;;;;4955358;29;20043;-75
2022/10/07 06:03:07;;;;;;;19.15;5.60;;;;;;;;;;4955274;28;20125;-75
2022/10/07 06:05:33;;;;;;;20.85;6.85;;;;;;;;;;4954010;28;20376;-75
2022/10/07 06:07:59;;;;;;;19.15;7.35;;;;;;;;;;4971046;28;20045;-75
2022/10/07 06:13:10;;;;;;;19.75;6.15;;;;;;;;;;4975747;28;20046;-76
2022/10/07 06:15:36;;;;;;;16.25;6.82;;;;;;;;;;4976239;28;20046;-76
2022/10/07 06:18:03;;;;;;;14.88;6.30;;;;;;;;;;4976896;28;20082;-76
2022/10/07 06:20:29;;;;;;;12.45;5.68;;;;;;;;;;4973227;28;20054;-76
2022/10/07 06:22:57;;;;;;;13.38;6.03;;;;;;;;;;4962011;28;20047;-75
2022/10/07 06:25:23;;;;;;;19.33;6.20;;;;;;;;;;4969610;28;20173;-75
2022/10/07 06:27:49;;;;;;;15.85;6.40;;;;;;;;;;4955472;28;20048;-75
2022/10/07 06:30:16;;;;;;;15.32;6.28;;;;;;;;;;4956172;28;20054;-76
2022/10/07 06:32:42;;;;;;;15.15;6.63;;;;;;;;;;4953327;28;20090;-76
2022/10/07 06:35:08;;;;;;;18.80;5.97;;;;;;;;;;4954634;28;20043;-76
2022/10/07 06:37:34;;;;;;;18.65;6.10;;;;;;;;;;4954727;28;20047;-76
2022/10/07 06:40:00;;;;;;;15.52;6.28;;;;;;;;;;4954559;29;20459;-75
2022/10/07 06:42:26;;;;;;;17.17;5.85;;;;;;;;;;4954066;29;20047;-75
2022/10/07 06:44:52;;;;;;;17.02;6.53;;;;;;;;;;4956051;29;20082;-77
2022/10/07 06:47:19;;;;;;;13.30;6.22;;;;;;;;;;4965980;28;20385;-76
2022/10/07 06:49:45;;;;;;;15.90;5.60;;;;;;;;;;4956678;28;20047;-76
2022/10/07 06:52:11;;;;;;;15.32;5.93;;;;;;;;;;4958681;28;20051;-76
2022/10/07 06:54:38;;;;;;;16.92;6.47;;;;;;;;;;4970225;28;20506;-76
2022/10/07 06:57:04;;;;;;;16.58;6.30;;;;;;;;;;4954077;28;20047;-75
2022/10/07 06:59:30;;;;;;;16.77;6.38;;;;;;;;;;4960068;28;20051;-75
2022/10/07 07:01:56;;;;;;;19.98;6.75;;;;;;;;;;4956721;29;20043;-76
2022/10/07 07:04:24;;;;;;;17.55;6.47;;;;;;;;;;4954488;28;20193;-75
2022/10/07 07:06:50;;;;;;;16.85;5.60;;;;;;;;;;4960336;28;20057;-76
2022/10/07 07:09:16;;;;;;;19.48;6.30;;;;;;;;;;4956796;28;20389;-75
2022/10/07 07:11:44;;;;;;;14.40;5.70;;;;;;;;;;4954611;28;20047;-75
2022/10/07 07:14:11;;;;;;;18.83;6.15;;;;;;;;;;4954615;28;20047;-75
2022/10/07 07:16:41;;;;;;;17.85;6.75;;;;;;;;;;4954652;29;20103;-75
2022/10/07 07:19:08;;;;;;;13.32;5.75;;;;;;;;;;4954545;28;20094;-75
2022/10/07 07:21:34;;;;;;;15.50;6.35;;;;;;;;;;4954005;28;20104;-75
2022/10/07 07:24:01;;;;;;;21.05;6.00;;;;;;;;;;4970509;28;20042;-75
2022/10/07 07:26:28;;;;;;;19.70;6.07;;;;;;;;;;4961145;28;20058;-76
2022/10/07 07:28:57;;;;;;;16.85;6.85;;;;;;;;;;4953479;29;20051;-76
2022/10/07 07:31:23;;;;;;;16.52;6.00;;;;;;;;;;4964879;28;20055;-76
2022/10/07 07:33:51;;;;;;;15.90;5.60;;;;;;;;;;4965938;28;20051;-76
2022/10/07 07:36:18;;;;;;;19.65;6.53;;;;;;;;;;4972821;28;20127;-76
2022/10/07 07:38:50;;;;;;;14.45;6.07;;;;;;;;;;4960363;28;20103;-76
2022/10/07 07:41:16;;;;;;;22.95;6.25;;;;;;;;;;4953840;28;20057;-76
2022/10/07 07:43:42;;;;;;;18.13;6.40;;;;;;;;;;4972610;28;20474;-76
2022/10/07 07:46:10;;;;;;;17.17;5.80;;;;;;;;;;4972375;28;20046;-76
2022/10/07 07:48:36;;;;;;;15.70;6.13;;;;;;;;;;4964103;28;20109;-76
2022/10/07 07:51:06;;;;;;;15.68;5.85;;;;;;;;;;4975717;28;20050;-77
2022/10/07 07:53:33;;;;;;;14.75;5.47;;;;;;;;;;4973374;28;20047;-76
2022/10/07 07:56:01;;;;;;;15.82;6.65;;;;;;;;;;4972227;28;20085;-76
2022/10/07 07:58:28;;;;;;;21.48;8.38;;;;;;;;;;4972688;28;20051;-75
2022/10/07 08:00:58;;;;;;;15.18;6.43;;;;;;;;;;4956517;28;20053;-78
2022/10/07 08:03:25;;;;;;;17.20;5.90;;;;;;;;;;4952714;28;20119;-75
2022/10/07 08:05:51;;;;;;;16.83;6.43;;;;;;;;;;4960572;28;20126;-75
2022/10/07 08:08:17;;;;;;;23.58;6.97;;;;;;;;;;4962866;28;20047;-75
2022/10/07 08:10:43;;;;;;;15.80;6.53;;;;;;;;;;4957783;28;20043;-76
2022/10/07 08:13:09;;;;;;;19.63;6.63;;;;;;;;;;4953003;28;20043;-75
2022/10/07 08:15:35;;;;;;;16.05;5.72;;;;;;;;;;4953317;28;20047;-76
2022/10/07 08:18:03;;;;;;;22.73;6.68;;;;;;;;;;4952902;28;20057;-77
2022/10/07 08:20:29;;;;;;;17.63;6.45;;;;;;;;;;4952033;28;20055;-76
2022/10/07 08:22:55;;;;;;;18.23;6.13;;;;;;;;;;4952143;28;20489;-76
2022/10/07 08:25:21;;;;;;;16.77;6.22;;;;;;;;;;4969611;28;20039;-76
2022/10/07 08:27:47;;;;;;;26.52;7.55;;;;;;;;;;4971653;28;20366;-76
2022/10/07 08:30:13;;;;;;;18.30;6.00;;;;;;;;;;4971389;28;20047;-76
2022/10/07 08:32:40;;;;;;;18.33;5.57;;;;;;;;;;4971618;28;20047;-76
2022/10/07 08:35:06;;;;;;;19.52;6.57;;;;;;;;;;4968922;28;20448;-76
2022/10/07 08:37:32;;;;;;;16.02;6.50;;;;;;;;;;4955370;28;20043;-76
2022/10/07 08:39:58;;;;;;;18.65;6.25;;;;;;;;;;4955452;28;20048;-76
2022/10/07 08:42:29;;;;;;;18.95;6.13;;;;;;;;;;4961258;28;20039;-76
2022/10/07 08:44:55;;;;;;;18.90;6.07;;;;;;;;;;4965225;28;20047;-76
2022/10/07 08:47:39;;;;;;;14.45;5.43;;;;;;;;;;4960256;28;20055;-76
2022/10/07 08:50:20;;;;;;;13.80;5.07;;;;;;;;;;4970767;28;20043;-76
2022/10/07 08:52:49;;;;;;;15.65;5.55;;;;;;;;;;4961544;28;20046;-76
2022/10/07 08:55:23;;;;;;;18.08;5.20;;;;;;;;;;4960625;28;20044;-76
2022/10/07 08:57:55;;;;;;;11.48;5.18;;;;;;;;;;4955838;28;20043;-76
2022/10/07 09:00:23;;;;;;;16.05;5.35;;;;;;;;;;4955694;28;20456;-76
2022/10/07 09:03:05;;;;;;;13.63;4.68;;;;;;;;;;4973692;28;20047;-76
2022/10/07 09:05:33;;;;;;;15.15;5.00;;;;;;;;;;4962365;28;20038;-77
2022/10/07 09:08:01;;;;;;;14.40;4.85;;;;;;;;;;4966051;28;20062;-77
2022/10/07 09:10:30;;;;;;;12.95;4.63;;;;;;;;;;4962211;28;20054;-81
2022/10/07 09:13:00;;;;;;;18.00;4.80;;;;;;;;;;4959405;28;20092;-78
2022/10/07 09:15:32;;;;;;;16.33;4.63;;;;;;;;;;4957720;28;20046;-78
2022/10/07 09:17:59;;;;;;;16.83;4.70;;;;;;;;;;4955322;28;20051;-78
2022/10/07 09:20:30;;;;;;;12.25;4.15;;;;;;;;;;4955563;29;20134;-78
2022/10/07 09:22:57;;;;;;;10.38;4.20;;;;;;;;;;4955245;29;20043;-78
2022/10/07 09:25:24;;;;;;;14.57;4.35;;;;;;;;;;4961315;28;20047;-78
2022/10/07 09:27:51;;;;;;;14.80;5.25;;;;;;;;;;4967776;28;20044;-78
2022/10/07 09:30:17;;;;;;;13.13;4.75;;;;;;;;;;4974646;28;20051;-78
2022/10/07 09:32:45;;;;;;;11.25;4.07;;;;;;;;;;4974754;28;20039;-78
2022/10/07 09:35:16;;;;;;;13.32;4.65;;;;;;;;;;4966952;28;20094;-78
2022/10/07 09:37:56;;;;;;;11.68;4.10;;;;;;;;;;4955245;28;20055;-77
2022/10/07 09:40:30;;;;;;;16.20;4.75;;;;;;;;;;4956186;28;20055;-79
2022/10/07 09:42:57;;;;;;;14.80;4.53;;;;;;;;;;4961508;28;20049;-78
2022/10/07 09:45:30;;;;;;;9.93;4.10;;;;;;;;;;4970133;28;20051;-79
2022/10/07 09:47:57;;;;;;;17.58;5.18;;;;;;;;;;4956345;28;20548;-77
2022/10/07 09:50:40;;;;;;;11.32;4.70;;;;;;;;;;4956045;28;20043;-78
2022/10/07 09:53:17;;;;;;;16.55;4.95;;;;;;;;;;4963949;28;20043;-77
2022/10/07 09:55:44;;;;;;;12.18;4.63;;;;;;;;;;4954989;28;20047;-77
2022/10/07 09:58:26;;;;;;;12.15;4.72;;;;;;;;;;4954445;28;20660;-77
2022/10/07 10:00:53;;;;;;;17.95;5.70;;;;;;;;;;4954637;28;20047;-76
2022/10/07 10:03:20;;;;;;;11.20;4.43;;;;;;;;;;4970339;28;20096;-77
2022/10/07 10:05:56;;;;;;;12.10;4.28;;;;;;;;;;4974273;28;20043;-77
2022/10/07 10:08:30;;;;;;;15.13;4.65;;;;;;;;;;4969358;28;20055;-76
2022/10/07 10:11:00;;;;;;;13.90;4.80;;;;;;;;;;4954436;28;20087;-76
2022/10/07 10:13:33;;;;;;;12.23;4.32;;;;;;;;;;4969959;28;20051;-76
2022/10/07 10:15:59;;;;;;;17.17;4.63;;;;;;;;;;4973223;28;20383;-76
2022/10/07 10:18:29;;;;;;;12.50;3.80;;;;;;;;;;4970435;28;20042;-79
2022/10/07 10:20:55;;;;;;;13.05;4.75;;;;;;;;;;4960319;28;20145;-79
2022/10/07 10:23:29;;;;;;;16.83;4.78;;;;;;;;;;4954045;28;20085;-77
2022/10/07 10:26:25;;;;;;;17.77;4.75;;;;;;;;;;4954611;28;20059;-77
2022/10/07 10:28:57;;;;;;;11.13;4.80;;;;;;;;;;4969515;28;20100;-77
2022/10/07 10:31:28;;;;;;;15.48;4.35;;;;;;;;;;4961296;28;20513;-77
2022/10/07 10:34:02;;;;;;;12.80;3.78;;;;;;;;;;4954129;28;20043;-77
2022/10/07 10:36:30;;;;;;;12.20;4.15;;;;;;;;;;4954610;28;20047;-78
2022/10/07 10:39:05;;;;;;;14.75;4.07;;;;;;;;;;4954503;28;20122;-77
2022/10/07 10:41:37;;;;;;;12.10;4.32;;;;;;;;;;4960782;28;20058;-77
2022/10/07 10:44:12;;;;;;;14.85;4.10;;;;;;;;;;4966590;28;20058;-78
2022/10/07 10:46:46;;;;;;;11.38;3.83;;;;;;;;;;4973185;28;20062;-78
2022/10/07 10:49:24;;;;;;;16.17;4.85;;;;;;;;;;4973079;28;20050;-78
2022/10/07 10:51:56;;;;;;;13.98;4.63;;;;;;;;;;4973198;28;20047;-78
2022/10/07 10:54:22;;;;;;;14.75;4.32;;;;;;;;;;4961579;28;20051;-78
2022/10/07 10:56:54;;;;;;;12.93;4.20;;;;;;;;;;4954239;28;20050;-78
2022/10/07 10:59:32;;;;;;;13.82;4.40;;;;;;;;;;4952580;28;20446;-78
2022/10/07 11:02:07;;;;;;;15.02;4.38;;;;;;;;;;4953409;28;20093;-78
2022/10/07 11:04:42;;;;;;;12.57;4.00;;;;;;;;;;4953782;28;20399;-78
2022/10/07 11:07:23;;;;;;;13.20;4.20;;;;;;;;;;4953847;28;20447;-78
2022/10/07 11:09:51;;;;;;;9.27;3.78;;;;;;;;;;4955568;28;20065;-78
2022/10/07 11:12:24;;;;;;;15.20;4.18;;;;;;;;;;4963369;28;20470;-77
2022/10/07 11:14:53;;;;;;;13.45;3.92;;;;;;;;;;4954312;28;20057;-78
2022/10/07 11:17:22;;;;;;;12.85;4.03;;;;;;;;;;4958475;28;20054;-78
2022/10/07 11:19:54;;;;;;;13.88;4.10;;;;;;;;;;4958098;28;20063;-78
2022/10/07 11:22:29;;;;;;;18.88;4.00;;;;;;;;;;4953473;28;20055;-78
2022/10/07 11:24:59;;;;;;;12.20;4.10;;;;;;;;;;4953042;29;20501;-78
2022/10/07 11:27:33;;;;;;;13.35;3.67;;;;;;;;;;4962621;28;20118;-78
2022/10/07 11:30:02;;;;;;;12.23;3.80;;;;;;;;;;4954238;29;20079;-78
2022/10/07 11:32:30;;;;;;;12.93;4.10;;;;;;;;;;4953353;29;20050;-78
2022/10/07 11:34:59;;;;;;;17.75;4.38;;;;;;;;;;4960713;28;20051;-78
2022/10/07 11:37:31;;;;;;;14.80;3.97;;;;;;;;;;4953361;29;20047;-78
2022/10/07 11:39:57;;;;;;;11.75;3.65;;;;;;;;;;4958901;28;20035;-78
2022/10/07 11:42:26;;;;;;;8.40;3.72;;;;;;;;;;4953236;28;20108;-77
2022/10/07 11:44:52;;;;;;;8.52;3.63;;;;;;;;;;4952309;28;20043;-78
2022/10/07 11:47:20;;;;;;;13.13;4.07;;;;;;;;;;4952890;28;20363;-78
2022/10/07 11:49:54;;;;;;;12.25;3.80;;;;;;;;;;4956621;28;20076;-80
2022/10/07 11:52:28;;;;;;;11.93;4.32;;;;;;;;;;4966954;28;20389;-77
2022/10/07 11:54:59;;;;;;;14.75;4.00;;;;;;;;;;4963928;28;20086;-79
2022/10/07 11:57:30;;;;;;;13.63;4.43;;;;;;;;;;4976990;28;20050;-79
2022/10/07 11:59:58;;;;;;;11.85;3.65;;;;;;;;;;4960998;28;20047;-76
2022/10/07 12:02:27;;;;;;;15.35;4.20;;;;;;;;;;4971059;28;20051;-76
2022/10/07 12:04:58;;;;;;;12.18;4.00;;;;;;;;;;4972603;28;20096;-76
2022/10/07 12:07:33;;;;;;;11.57;3.47;;;;;;;;;;4971600;28;20497;-77
2022/10/07 12:10:02;;;;;;;12.38;4.40;;;;;;;;;;4972190;28;20393;-76
2022/10/07 12:12:44;;;;;;;11.27;3.80;;;;;;;;;;4971939;28;20440;-76
2022/10/07 12:15:23;;;;;;;11.30;4.55;;;;;;;;;;4972629;28;20057;-76
2022/10/07 12:17:53;;;;;;;11.75;4.10;;;;;;;;;;4972148;28;20046;-77
2022/10/07 12:20:36;;;;;;;14.68;4.20;;;;;;;;;;4971603;28;20104;-76
2022/10/07 12:23:35;;;;;;;12.15;4.65;;;;;;;;;;4972198;28;20133;-76
2022/10/07 12:26:19;;;;;;;13.25;4.53;;;;;;;;;;4971773;28;20043;-76
2022/10/07 12:28:47;;;;;;;11.48;4.22;;;;;;;;;;4972078;28;20057;-76
2022/10/07 12:31:22;;;;;;;11.60;4.18;;;;;;;;;;4972057;28;20107;-77
2022/10/07 12:33:55;;;;;;;12.60;3.70;;;;;;;;;;4972275;28;20066;-77
2022/10/07 12:36:21;;;;;;;11.75;4.07;;;;;;;;;;4971894;28;20043;-76
2022/10/07 12:41:26;;;;;;;10.33;3.60;;;;;;;;;;4971693;28;20146;-76
2022/10/07 12:43:59;;;;;;;13.65;3.70;;;;;;;;;;4971926;28;20117;-77
2022/10/07 12:46:28;;;;;;;12.13;3.53;;;;;;;;;;4971647;28;20409;-76
2022/10/07 12:48:54;;;;;;;11.27;3.40;;;;;;;;;;4971729;28;20066;-76
2022/10/07 12:51:25;;;;;;;9.23;3.17;;;;;;;;;;4972186;28;20474;-76
2022/10/07 12:53:52;;;;;;;7.25;2.85;;;;;;;;;;4971883;28;20043;-76
2022/10/07 12:56:24;;;;;;;10.65;3.47;;;;;;;;;;4971784;28;20108;-76
2022/10/07 13:02:09;;;;;;;10.35;2.90;;;;;;;;;;4971543;28;20055;-77
2022/10/07 13:04:53;;;;;;;8.85;3.55;;;;;;;;;;4972178;28;20100;-76
2022/10/07 13:07:58;;;;;;;8.00;3.00;;;;;;;;;;4971411;28;20078;-76
2022/10/07 13:10:42;;;;;;;11.38;3.33;;;;;;;;;;4930686;29;20048;-76
2022/10/07 13:13:20;;;;;;;7.60;2.88;;;;;;;;;;4930946;29;20047;-76
2022/10/07 13:15:54;;;;;;;12.32;3.10;;;;;;;;;;4931009;29;20176;-77
2022/10/07 13:18:36;;;;;;;8.55;3.20;;;;;;;;;;4930712;29;20048;-77
2022/10/07 13:21:06;;;;;;;13.98;3.47;;;;;;;;;;4931079;29;20071;-77
2022/10/07 13:23:33;;;;;;;13.45;3.03;;;;;;;;;;4933081;29;20079;-77
2022/10/07 13:26:02;;;;;;;8.10;3.03;;;;;;;;;;4935993;29;20047;-77
2022/10/07 13:28:35;;;;;;;10.95;3.33;;;;;;;;;;4935530;29;20066;-76
2022/10/07 13:31:12;;;;;;;13.40;3.45;;;;;;;;;;4934043;29;20047;-77
2022/10/07 13:33:38;;;;;;;14.38;3.70;;;;;;;;;;4933905;29;20090;-77
2022/10/07 13:36:06;;;;;;;9.02;3.58;;;;;;;;;;4934229;29;20126;-76
2022/10/07 13:38:33;;;;;;;11.60;3.47;;;;;;;;;;4933792;29;20052;-76
2022/10/07 13:41:23;;;;;;;9.63;3.70;;;;;;;;;;4951593;28;20051;-76
2022/10/07 13:43:53;;;;;;;11.70;3.30;;;;;;;;;;4968706;28;20059;-76
2022/10/07 13:46:20;;;;;;;15.10;3.50;;;;;;;;;;4974296;28;20485;-76
2022/10/07 13:48:47;;;;;;;12.38;4.03;;;;;;;;;;4974120;28;20050;-77
2022/10/07 13:51:19;;;;;;;10.07;3.75;;;;;;;;;;4972835;28;20059;-76
2022/10/07 13:53:50;;;;;;;12.82;3.30;;;;;;;;;;4973983;28;20469;-76
2022/10/07 13:56:16;;;;;;;6.35;3.33;;;;;;;;;;4974486;28;20081;-76
2022/10/07 13:58:43;;;;;;;8.68;2.90;;;;;;;;;;4974185;28;20047;-76
2022/10/07 14:01:09;;;;;;;10.77;3.33;;;;;;;;;;4973782;28;20047;-76
2022/10/07 14:03:55;;;;;;;12.73;3.60;;;;;;;;;;4974123;28;20126;-76
2022/10/07 14:06:36;;;;;;;13.07;3.65;;;;;;;;;;4974178;28;20397;-76
2022/10/07 14:09:02;;;;;;;9.38;2.85;;;;;;;;;;4973742;28;20412;-76
2022/10/07 14:11:29;;;;;;;12.73;3.53;;;;;;;;;;4973656;28;20038;-76
2022/10/07 14:13:58;;;;;;;11.85;3.97;;;;;;;;;;4973831;28;20053;-76
2022/10/07 14:16:24;;;;;;;14.43;3.45;;;;;;;;;;4973938;28;20517;-76
2022/10/07 14:18:51;;;;;;;9.45;3.65;;;;;;;;;;4956572;28;20059;-77
2022/10/07 14:21:17;;;;;;;9.07;3.42;;;;;;;;;;4974250;28;20047;-77
2022/10/07 14:23:45;;;;;;;7.90;2.95;;;;;;;;;;4974061;28;20099;-76
2022/10/07 14:26:13;;;;;;;11.70;3.60;;;;;;;;;;4973743;28;20444;-76
2022/10/07 14:28:40;;;;;;;17.63;4.00;;;;;;;;;;4973550;28;20402;-77
2022/10/07 14:37:00;;;;;;;13.10;3.22;;;;;;;;;;4973972;28;20054;-76
2022/10/07 14:39:48;;;;;;;10.48;2.92;;;;;;;;;;4972571;28;20126;-76
2022/10/07 14:42:27;;;;;;;11.98;3.20;;;;;;;;;;4973948;28;20043;-76
2022/10/07 14:44:54;;;;;;;12.63;3.85;;;;;;;;;;4971699;28;20104;-76
2022/10/07 14:47:26;;;;;;;7.00;2.75;;;;;;;;;;4973472;28;20043;-77
2022/10/07 14:49:53;;;;;;;9.68;2.95;;;;;;;;;;4973347;28;20097;-76
2022/10/07 14:52:22;;;;;;;14.00;3.28;;;;;;;;;;4973274;28;20044;-76
2022/10/07 14:54:49;;;;;;;10.10;3.08;;;;;;;;;;4973357;28;20125;-77
2022/10/07 14:57:15;;;;;;;11.00;3.38;;;;;;;;;;4973258;28;20043;-76
2022/10/07 14:59:41;;;;;;;12.23;3.35;;;;;;;;;;4973606;28;20039;-76